sensor_id;sensor_type;location;lat;lon;timestamp;P1;durP1;ratioP1;P2;durP2;ratioP2
23578;SDS011;11967;50.852;4.400;2022-07-17T00:00:50;9.07;;;2.13;;
23578;SDS011;11967;50.852;4.400;2022-07-17T00:03:16;5.93;;;1.90;;
23578;SDS011;11967;50.852;4.400;2022-07-17T00:05:43;7.32;;;1.90;;
23578;SDS011;11967;50.852;4.400;2022-07-17T00:08:14;9.23;;;2.00;;
23578;SDS011;11967;50.852;4.400;2022-07-17T00:10:42;6.22;;;1.67;;
23578;SDS011;11967;50.852;4.400;2022-07-17T00:13:09;7.97;;;2.10;;
23578;SDS011;11967;50.852;4.400;2022-07-17T00:15:36;6.47;;;1.90;;
23578;SDS011;11967;50.852;4.400;2022-07-17T00:18:02;6.75;;;1.90;;
23578;SDS011;11967;50.852;4.400;2022-07-17T00:20:31;4.90;;;1.63;;
23578;SDS011;11967;50.852;4.400;2022-07-17T00:22:59;5.57;;;1.80;;
23578;SDS011;11967;50.852;4.400;2022-07-17T00:25:25;7.35;;;1.85;;
23578;SDS011;11967;50.852;4.400;2022-07-17T00:27:51;7.95;;;1.80;;
23578;SDS011;11967;50.852;4.400;2022-07-17T00:30:17;5.75;;;1.90;;
23578;SDS011;11967;50.852;4.400;2022-07-17T00:32:43;9.18;;;2.08;;
23578;SDS011;11967;50.852;4.400;2022-07-17T00:35:09;4.25;;;1.73;;
23578;SDS011;11967;50.852;4.400;2022-07-17T00:37:42;4.90;;;1.73;;
23578;SDS011;11967;50.852;4.400;2022-07-17T00:42:39;8.50;;;1.92;;
23578;SDS011;11967;50.852;4.400;2022-07-17T00:45:07;5.70;;;1.85;;
23578;SDS011;11967;50.852;4.400;2022-07-17T00:47:34;9.32;;;2.10;;
23578;SDS011;11967;50.852;4.400;2022-07-17T00:50:29;6.32;;;1.85;;
23578;SDS011;11967;50.852;4.400;2022-07-17T00:53:02;7.45;;;1.95;;
23578;SDS011;11967;50.852;4.400;2022-07-17T00:55:29;8.07;;;2.05;;
23578;SDS011;11967;50.852;4.400;2022-07-17T00:58:00;5.18;;;1.95;;
23578;SDS011;11967;50.852;4.400;2022-07-17T01:00:27;6.80;;;1.80;;
23578;SDS011;11967;50.852;4.400;2022-07-17T01:02:53;5.07;;;2.00;;
23578;SDS011;11967;50.852;4.400;2022-07-17T01:05:20;8.13;;;1.80;;
23578;SDS011;11967;50.852;4.400;2022-07-17T01:07:47;3.05;;;1.70;;
23578;SDS011;11967;50.852;4.400;2022-07-17T01:10:23;6.95;;;1.90;;
23578;SDS011;11967;50.852;4.400;2022-07-17T01:12:49;4.72;;;1.80;;
23578;SDS011;11967;50.852;4.400;2022-07-17T01:15:15;7.75;;;2.20;;
23578;SDS011;11967;50.852;4.400;2022-07-17T01:17:43;7.40;;;2.20;;
23578;SDS011;11967;50.852;4.400;2022-07-17T01:20:09;6.78;;;1.80;;
23578;SDS011;11967;50.852;4.400;2022-07-17T01:22:40;6.55;;;1.90;;
23578;SDS011;11967;50.852;4.400;2022-07-17T01:25:11;6.43;;;2.10;;
23578;SDS011;11967;50.852;4.400;2022-07-17T01:27:37;5.07;;;1.95;;
23578;SDS011;11967;50.852;4.400;2022-07-17T01:30:04;6.68;;;2.28;;
23578;SDS011;11967;50.852;4.400;2022-07-17T01:32:34;7.32;;;1.92;;
23578;SDS011;11967;50.852;4.400;2022-07-17T01:35:04;6.63;;;1.90;;
23578;SDS011;11967;50.852;4.400;2022-07-17T01:37:34;5.40;;;2.03;;
23578;SDS011;11967;50.852;4.400;2022-07-17T01:40:08;9.38;;;2.22;;
23578;SDS011;11967;50.852;4.400;2022-07-17T01:42:38;7.18;;;2.00;;
23578;SDS011;11967;50.852;4.400;2022-07-17T01:45:06;5.70;;;1.80;;
23578;SDS011;11967;50.852;4.400;2022-07-17T01:47:32;8.88;;;2.20;;
23578;SDS011;11967;50.852;4.400;2022-07-17T01:49:59;7.28;;;2.20;;
23578;SDS011;11967;50.852;4.400;2022-07-17T01:52:26;7.28;;;2.13;;
23578;SDS011;11967;50.852;4.400;2022-07-17T01:54:54;6.78;;;2.10;;
23578;SDS011;11967;50.852;4.400;2022-07-17T01:57:20;7.57;;;2.15;;
23578;SDS011;11967;50.852;4.400;2022-07-17T01:59:57;9.77;;;2.10;;
23578;SDS011;11967;50.852;4.400;2022-07-17T02:02:25;7.80;;;2.03;;
23578;SDS011;11967;50.852;4.400;2022-07-17T02:04:52;9.38;;;2.33;;
23578;SDS011;11967;50.852;4.400;2022-07-17T02:07:17;6.80;;;2.00;;
23578;SDS011;11967;50.852;4.400;2022-07-17T02:09:47;6.43;;;2.15;;
23578;SDS011;11967;50.852;4.400;2022-07-17T02:12:13;8.50;;;1.80;;
23578;SDS011;11967;50.852;4.400;2022-07-17T02:14:39;6.97;;;1.98;;
23578;SDS011;11967;50.852;4.400;2022-07-17T02:17:08;8.55;;;2.17;;
23578;SDS011;11967;50.852;4.400;2022-07-17T02:19:33;7.72;;;1.92;;
23578;SDS011;11967;50.852;4.400;2022-07-17T02:22:06;6.03;;;2.15;;
23578;SDS011;11967;50.852;4.400;2022-07-17T02:24:34;8.35;;;2.50;;
23578;SDS011;11967;50.852;4.400;2022-07-17T02:27:00;4.05;;;1.52;;
23578;SDS011;11967;50.852;4.400;2022-07-17T02:29:26;7.18;;;2.33;;
23578;SDS011;11967;50.852;4.400;2022-07-17T02:31:53;5.90;;;2.13;;
23578;SDS011;11967;50.852;4.400;2022-07-17T02:34:21;6.50;;;2.33;;
23578;SDS011;11967;50.852;4.400;2022-07-17T02:36:47;6.78;;;2.22;;
23578;SDS011;11967;50.852;4.400;2022-07-17T02:39:12;5.05;;;2.17;;
23578;SDS011;11967;50.852;4.400;2022-07-17T02:41:38;6.05;;;2.25;;
23578;SDS011;11967;50.852;4.400;2022-07-17T02:44:04;7.10;;;2.25;;
23578;SDS011;11967;50.852;4.400;2022-07-17T02:46:29;7.85;;;2.03;;
23578;SDS011;11967;50.852;4.400;2022-07-17T02:48:55;5.05;;;2.42;;
23578;SDS011;11967;50.852;4.400;2022-07-17T02:51:21;11.10;;;2.33;;
23578;SDS011;11967;50.852;4.400;2022-07-17T02:53:46;5.32;;;1.73;;
23578;SDS011;11967;50.852;4.400;2022-07-17T02:56:12;4.38;;;2.00;;
23578;SDS011;11967;50.852;4.400;2022-07-17T02:58:38;13.05;;;2.42;;
23578;SDS011;11967;50.852;4.400;2022-07-17T03:01:04;8.15;;;2.15;;
23578;SDS011;11967;50.852;4.400;2022-07-17T03:03:29;9.40;;;1.95;;
23578;SDS011;11967;50.852;4.400;2022-07-17T03:05:57;8.20;;;1.90;;
23578;SDS011;11967;50.852;4.400;2022-07-17T03:08:25;5.35;;;1.60;;
23578;SDS011;11967;50.852;4.400;2022-07-17T03:10:54;5.82;;;1.95;;
23578;SDS011;11967;50.852;4.400;2022-07-17T03:13:20;10.50;;;2.30;;
23578;SDS011;11967;50.852;4.400;2022-07-17T03:15:45;8.32;;;2.67;;
23578;SDS011;11967;50.852;4.400;2022-07-17T03:18:13;6.18;;;2.05;;
23578;SDS011;11967;50.852;4.400;2022-07-17T03:20:39;5.43;;;1.80;;
23578;SDS011;11967;50.852;4.400;2022-07-17T03:23:04;10.27;;;2.00;;
23578;SDS011;11967;50.852;4.400;2022-07-17T03:25:33;5.95;;;2.10;;
23578;SDS011;11967;50.852;4.400;2022-07-17T03:27:58;6.95;;;2.13;;
23578;SDS011;11967;50.852;4.400;2022-07-17T03:30:24;6.93;;;2.03;;
23578;SDS011;11967;50.852;4.400;2022-07-17T03:32:50;7.07;;;1.95;;
23578;SDS011;11967;50.852;4.400;2022-07-17T03:35:15;6.68;;;2.20;;
23578;SDS011;11967;50.852;4.400;2022-07-17T03:37:41;6.22;;;2.20;;
23578;SDS011;11967;50.852;4.400;2022-07-17T03:40:09;10.57;;;2.35;;
23578;SDS011;11967;50.852;4.400;2022-07-17T03:42:35;7.32;;;2.20;;
23578;SDS011;11967;50.852;4.400;2022-07-17T03:45:01;7.65;;;2.20;;
23578;SDS011;11967;50.852;4.400;2022-07-17T03:47:27;8.93;;;1.98;;
23578;SDS011;11967;50.852;4.400;2022-07-17T03:49:52;9.25;;;2.20;;
23578;SDS011;11967;50.852;4.400;2022-07-17T03:52:18;5.63;;;2.25;;
23578;SDS011;11967;50.852;4.400;2022-07-17T03:54:44;6.70;;;1.75;;
23578;SDS011;11967;50.852;4.400;2022-07-17T03:57:09;9.70;;;2.63;;
23578;SDS011;11967;50.852;4.400;2022-07-17T03:59:38;7.13;;;2.28;;
23578;SDS011;11967;50.852;4.400;2022-07-17T04:02:03;7.03;;;1.98;;
23578;SDS011;11967;50.852;4.400;2022-07-17T04:04:29;7.22;;;2.03;;
23578;SDS011;11967;50.852;4.400;2022-07-17T04:06:55;9.00;;;2.22;;
23578;SDS011;11967;50.852;4.400;2022-07-17T04:09:20;5.55;;;2.20;;
23578;SDS011;11967;50.852;4.400;2022-07-17T04:11:46;7.65;;;2.30;;
23578;SDS011;11967;50.852;4.400;2022-07-17T04:14:12;6.63;;;2.00;;
23578;SDS011;11967;50.852;4.400;2022-07-17T04:16:38;6.13;;;1.95;;
23578;SDS011;11967;50.852;4.400;2022-07-17T04:19:04;8.95;;;2.60;;
23578;SDS011;11967;50.852;4.400;2022-07-17T04:21:34;8.25;;;2.15;;
23578;SDS011;11967;50.852;4.400;2022-07-17T04:24:00;7.55;;;2.20;;
23578;SDS011;11967;50.852;4.400;2022-07-17T04:26:33;8.98;;;1.98;;
23578;SDS011;11967;50.852;4.400;2022-07-17T04:29:14;8.82;;;2.20;;
23578;SDS011;11967;50.852;4.400;2022-07-17T04:31:50;9.15;;;2.17;;
23578;SDS011;11967;50.852;4.400;2022-07-17T04:34:45;9.13;;;2.40;;
23578;SDS011;11967;50.852;4.400;2022-07-17T04:37:26;6.38;;;2.28;;
23578;SDS011;11967;50.852;4.400;2022-07-17T04:39:53;10.13;;;1.90;;
23578;SDS011;11967;50.852;4.400;2022-07-17T04:42:32;4.50;;;1.90;;
23578;SDS011;11967;50.852;4.400;2022-07-17T04:45:10;5.35;;;1.88;;
23578;SDS011;11967;50.852;4.400;2022-07-17T04:47:49;11.25;;;2.70;;
23578;SDS011;11967;50.852;4.400;2022-07-17T04:50:29;6.60;;;2.28;;
23578;SDS011;11967;50.852;4.400;2022-07-17T04:52:57;8.45;;;1.88;;
23578;SDS011;11967;50.852;4.400;2022-07-17T04:55:33;5.15;;;1.80;;
23578;SDS011;11967;50.852;4.400;2022-07-17T04:58:04;6.53;;;1.83;;
23578;SDS011;11967;50.852;4.400;2022-07-17T05:00:43;9.95;;;2.30;;
23578;SDS011;11967;50.852;4.400;2022-07-17T05:03:17;6.30;;;1.88;;
23578;SDS011;11967;50.852;4.400;2022-07-17T05:05:45;6.13;;;2.10;;
23578;SDS011;11967;50.852;4.400;2022-07-17T05:08:13;6.85;;;1.92;;
23578;SDS011;11967;50.852;4.400;2022-07-17T05:10:39;6.30;;;1.98;;
23578;SDS011;11967;50.852;4.400;2022-07-17T05:13:05;5.45;;;1.90;;
23578;SDS011;11967;50.852;4.400;2022-07-17T05:15:32;7.40;;;1.67;;
23578;SDS011;11967;50.852;4.400;2022-07-17T05:17:57;6.32;;;2.10;;
23578;SDS011;11967;50.852;4.400;2022-07-17T05:20:23;7.47;;;2.10;;
23578;SDS011;11967;50.852;4.400;2022-07-17T05:22:48;5.15;;;2.00;;
23578;SDS011;11967;50.852;4.400;2022-07-17T05:25:14;10.00;;;2.22;;
23578;SDS011;11967;50.852;4.400;2022-07-17T05:27:40;8.63;;;2.15;;
23578;SDS011;11967;50.852;4.400;2022-07-17T05:30:06;7.35;;;2.22;;
23578;SDS011;11967;50.852;4.400;2022-07-17T05:32:32;7.18;;;2.00;;
23578;SDS011;11967;50.852;4.400;2022-07-17T05:34:57;8.85;;;2.15;;
23578;SDS011;11967;50.852;4.400;2022-07-17T05:37:23;7.70;;;2.00;;
23578;SDS011;11967;50.852;4.400;2022-07-17T05:39:48;7.35;;;2.20;;
23578;SDS011;11967;50.852;4.400;2022-07-17T05:42:14;9.52;;;2.17;;
23578;SDS011;11967;50.852;4.400;2022-07-17T05:44:40;7.50;;;2.20;;
23578;SDS011;11967;50.852;4.400;2022-07-17T05:47:05;9.43;;;2.35;;
23578;SDS011;11967;50.852;4.400;2022-07-17T05:49:31;6.97;;;2.25;;
23578;SDS011;11967;50.852;4.400;2022-07-17T05:51:57;9.80;;;2.17;;
23578;SDS011;11967;50.852;4.400;2022-07-17T05:54:24;6.47;;;2.20;;
23578;SDS011;11967;50.852;4.400;2022-07-17T05:56:50;8.70;;;2.22;;
23578;SDS011;11967;50.852;4.400;2022-07-17T05:59:15;7.45;;;2.22;;
23578;SDS011;11967;50.852;4.400;2022-07-17T06:01:41;5.60;;;1.90;;
23578;SDS011;11967;50.852;4.400;2022-07-17T06:04:07;7.18;;;2.13;;
23578;SDS011;11967;50.852;4.400;2022-07-17T06:06:32;7.07;;;2.40;;
23578;SDS011;11967;50.852;4.400;2022-07-17T06:08:58;7.60;;;2.25;;
23578;SDS011;11967;50.852;4.400;2022-07-17T06:11:26;7.47;;;2.03;;
23578;SDS011;11967;50.852;4.400;2022-07-17T06:13:51;6.97;;;2.38;;
23578;SDS011;11967;50.852;4.400;2022-07-17T06:16:17;8.27;;;2.10;;
23578;SDS011;11967;50.852;4.400;2022-07-17T06:18:43;5.43;;;1.92;;
23578;SDS011;11967;50.852;4.400;2022-07-17T06:21:09;6.53;;;1.85;;
23578;SDS011;11967;50.852;4.400;2022-07-17T06:23:34;8.40;;;2.20;;
23578;SDS011;11967;50.852;4.400;2022-07-17T06:26:00;9.55;;;2.25;;
23578;SDS011;11967;50.852;4.400;2022-07-17T06:28:26;5.50;;;1.88;;
23578;SDS011;11967;50.852;4.400;2022-07-17T06:30:52;8.63;;;2.25;;
23578;SDS011;11967;50.852;4.400;2022-07-17T06:33:18;7.28;;;2.20;;
23578;SDS011;11967;50.852;4.400;2022-07-17T06:35:43;7.85;;;1.77;;
23578;SDS011;11967;50.852;4.400;2022-07-17T06:38:09;6.28;;;2.15;;
23578;SDS011;11967;50.852;4.400;2022-07-17T06:40:36;5.93;;;2.17;;
23578;SDS011;11967;50.852;4.400;2022-07-17T06:43:04;10.15;;;3.03;;
23578;SDS011;11967;50.852;4.400;2022-07-17T06:45:31;6.65;;;2.50;;
23578;SDS011;11967;50.852;4.400;2022-07-17T06:47:56;10.82;;;3.17;;
23578;SDS011;11967;50.852;4.400;2022-07-17T06:50:22;12.38;;;2.67;;
23578;SDS011;11967;50.852;4.400;2022-07-17T06:52:48;9.93;;;2.60;;
23578;SDS011;11967;50.852;4.400;2022-07-17T06:55:13;10.75;;;2.70;;
23578;SDS011;11967;50.852;4.400;2022-07-17T06:57:39;7.35;;;2.50;;
23578;SDS011;11967;50.852;4.400;2022-07-17T07:00:05;9.50;;;2.70;;
23578;SDS011;11967;50.852;4.400;2022-07-17T07:02:31;8.85;;;2.42;;
23578;SDS011;11967;50.852;4.400;2022-07-17T07:04:57;6.88;;;2.40;;
23578;SDS011;11967;50.852;4.400;2022-07-17T07:07:22;7.63;;;2.58;;
23578;SDS011;11967;50.852;4.400;2022-07-17T07:09:48;13.77;;;2.42;;
23578;SDS011;11967;50.852;4.400;2022-07-17T07:12:14;7.55;;;2.40;;
23578;SDS011;11967;50.852;4.400;2022-07-17T07:14:39;10.45;;;2.10;;
23578;SDS011;11967;50.852;4.400;2022-07-17T07:17:05;7.57;;;1.88;;
23578;SDS011;11967;50.852;4.400;2022-07-17T07:19:31;9.63;;;2.40;;
23578;SDS011;11967;50.852;4.400;2022-07-17T07:22:14;7.00;;;2.10;;
23578;SDS011;11967;50.852;4.400;2022-07-17T07:24:41;9.60;;;2.00;;
23578;SDS011;11967;50.852;4.400;2022-07-17T07:27:15;5.20;;;2.03;;
23578;SDS011;11967;50.852;4.400;2022-07-17T07:29:41;7.38;;;1.67;;
23578;SDS011;11967;50.852;4.400;2022-07-17T07:32:06;5.13;;;1.80;;
23578;SDS011;11967;50.852;4.400;2022-07-17T07:34:32;7.63;;;1.90;;
23578;SDS011;11967;50.852;4.400;2022-07-17T07:36:58;4.85;;;1.70;;
23578;SDS011;11967;50.852;4.400;2022-07-17T07:39:31;6.20;;;1.60;;
23578;SDS011;11967;50.852;4.400;2022-07-17T07:41:56;10.07;;;2.08;;
23578;SDS011;11967;50.852;4.400;2022-07-17T07:44:22;7.90;;;1.83;;
23578;SDS011;11967;50.852;4.400;2022-07-17T07:46:48;5.70;;;1.85;;
23578;SDS011;11967;50.852;4.400;2022-07-17T07:49:13;5.05;;;1.58;;
23578;SDS011;11967;50.852;4.400;2022-07-17T07:51:42;5.15;;;1.73;;
23578;SDS011;11967;50.852;4.400;2022-07-17T07:54:08;9.32;;;2.08;;
23578;SDS011;11967;50.852;4.400;2022-07-17T07:56:33;9.70;;;1.92;;
23578;SDS011;11967;50.852;4.400;2022-07-17T07:59:00;4.72;;;1.55;;
23578;SDS011;11967;50.852;4.400;2022-07-17T08:01:25;5.53;;;1.80;;
23578;SDS011;11967;50.852;4.400;2022-07-17T08:03:51;6.90;;;1.88;;
23578;SDS011;11967;50.852;4.400;2022-07-17T08:06:17;6.43;;;2.53;;
23578;SDS011;11967;50.852;4.400;2022-07-17T08:08:45;6.82;;;2.10;;
23578;SDS011;11967;50.852;4.400;2022-07-17T08:11:10;8.15;;;1.88;;
23578;SDS011;11967;50.852;4.400;2022-07-17T08:13:37;6.45;;;1.75;;
23578;SDS011;11967;50.852;4.400;2022-07-17T08:16:03;6.18;;;1.90;;
23578;SDS011;11967;50.852;4.400;2022-07-17T08:18:33;7.22;;;2.10;;
23578;SDS011;11967;50.852;4.400;2022-07-17T08:20:59;7.22;;;1.75;;
23578;SDS011;11967;50.852;4.400;2022-07-17T08:23:25;7.47;;;1.55;;
23578;SDS011;11967;50.852;4.400;2022-07-17T08:25:51;8.38;;;2.10;;
23578;SDS011;11967;50.852;4.400;2022-07-17T08:28:16;6.13;;;1.95;;
23578;SDS011;11967;50.852;4.400;2022-07-17T08:30:42;5.75;;;1.52;;
23578;SDS011;11967;50.852;4.400;2022-07-17T08:33:08;8.02;;;1.80;;
23578;SDS011;11967;50.852;4.400;2022-07-17T08:35:35;4.88;;;1.80;;
23578;SDS011;11967;50.852;4.400;2022-07-17T08:38:02;3.25;;;1.40;;
23578;SDS011;11967;50.852;4.400;2022-07-17T08:40:32;7.22;;;1.80;;
23578;SDS011;11967;50.852;4.400;2022-07-17T08:43:00;7.10;;;1.67;;
23578;SDS011;11967;50.852;4.400;2022-07-17T08:45:28;5.95;;;1.65;;
23578;SDS011;11967;50.852;4.400;2022-07-17T08:47:55;7.78;;;1.80;;
23578;SDS011;11967;50.852;4.400;2022-07-17T08:50:22;6.05;;;1.65;;
23578;SDS011;11967;50.852;4.400;2022-07-17T08:52:50;7.85;;;1.85;;
23578;SDS011;11967;50.852;4.400;2022-07-17T08:55:16;6.15;;;1.83;;
23578;SDS011;11967;50.852;4.400;2022-07-17T08:57:43;4.30;;;1.33;;
23578;SDS011;11967;50.852;4.400;2022-07-17T09:00:11;5.38;;;1.60;;
23578;SDS011;11967;50.852;4.400;2022-07-17T09:02:39;4.88;;;1.48;;
23578;SDS011;11967;50.852;4.400;2022-07-17T09:05:19;6.63;;;1.75;;
23578;SDS011;11967;50.852;4.400;2022-07-17T09:07:46;7.43;;;1.60;;
23578;SDS011;11967;50.852;4.400;2022-07-17T09:10:13;3.17;;;1.30;;
23578;SDS011;11967;50.852;4.400;2022-07-17T09:12:39;7.43;;;1.85;;
23578;SDS011;11967;50.852;4.400;2022-07-17T09:15:16;7.03;;;1.38;;
23578;SDS011;11967;50.852;4.400;2022-07-17T09:17:52;4.72;;;1.45;;
23578;SDS011;11967;50.852;4.400;2022-07-17T09:20:23;6.38;;;1.90;;
23578;SDS011;11967;50.852;4.400;2022-07-17T09:23:00;4.60;;;1.60;;
23578;SDS011;11967;50.852;4.400;2022-07-17T09:25:33;4.82;;;1.48;;
23578;SDS011;11967;50.852;4.400;2022-07-17T09:28:03;4.07;;;1.52;;
23578;SDS011;11967;50.852;4.400;2022-07-17T09:30:30;4.43;;;1.70;;
23578;SDS011;11967;50.852;4.400;2022-07-17T09:32:57;5.57;;;1.92;;
23578;SDS011;11967;50.852;4.400;2022-07-17T09:35:23;6.47;;;1.90;;
23578;SDS011;11967;50.852;4.400;2022-07-17T09:37:51;4.13;;;1.55;;
23578;SDS011;11967;50.852;4.400;2022-07-17T09:40:18;6.00;;;1.60;;
23578;SDS011;11967;50.852;4.400;2022-07-17T09:43:03;6.53;;;1.60;;
23578;SDS011;11967;50.852;4.400;2022-07-17T09:45:29;6.30;;;1.83;;
23578;SDS011;11967;50.852;4.400;2022-07-17T09:47:57;5.72;;;2.15;;
23578;SDS011;11967;50.852;4.400;2022-07-17T09:50:31;7.53;;;1.77;;
23578;SDS011;11967;50.852;4.400;2022-07-17T09:52:59;3.60;;;1.70;;
23578;SDS011;11967;50.852;4.400;2022-07-17T09:55:35;6.32;;;2.20;;
23578;SDS011;11967;50.852;4.400;2022-07-17T09:58:05;6.63;;;1.90;;
23578;SDS011;11967;50.852;4.400;2022-07-17T10:00:32;5.32;;;1.90;;
23578;SDS011;11967;50.852;4.400;2022-07-17T10:03:00;4.25;;;1.80;;
23578;SDS011;11967;50.852;4.400;2022-07-17T10:05:26;4.43;;;1.50;;
23578;SDS011;11967;50.852;4.400;2022-07-17T10:07:52;5.18;;;1.83;;
23578;SDS011;11967;50.852;4.400;2022-07-17T10:10:18;5.97;;;2.00;;
23578;SDS011;11967;50.852;4.400;2022-07-17T10:12:48;6.20;;;1.83;;
23578;SDS011;11967;50.852;4.400;2022-07-17T10:15:15;3.78;;;1.60;;
23578;SDS011;11967;50.852;4.400;2022-07-17T10:17:42;6.50;;;1.83;;
23578;SDS011;11967;50.852;4.400;2022-07-17T10:20:09;6.38;;;1.90;;
23578;SDS011;11967;50.852;4.400;2022-07-17T10:22:42;5.15;;;1.90;;
23578;SDS011;11967;50.852;4.400;2022-07-17T10:25:16;6.80;;;2.00;;
23578;SDS011;11967;50.852;4.400;2022-07-17T10:27:46;6.05;;;1.95;;
23578;SDS011;11967;50.852;4.400;2022-07-17T10:30:20;5.00;;;1.90;;
23578;SDS011;11967;50.852;4.400;2022-07-17T10:32:54;6.90;;;2.08;;
23578;SDS011;11967;50.852;4.400;2022-07-17T10:35:23;6.05;;;2.20;;
23578;SDS011;11967;50.852;4.400;2022-07-17T10:37:50;4.60;;;1.85;;
23578;SDS011;11967;50.852;4.400;2022-07-17T10:40:26;5.70;;;2.10;;
23578;SDS011;11967;50.852;4.400;2022-07-17T10:45:26;4.63;;;2.00;;
23578;SDS011;11967;50.852;4.400;2022-07-17T10:48:10;5.10;;;2.05;;
23578;SDS011;11967;50.852;4.400;2022-07-17T10:50:42;3.20;;;1.70;;
23578;SDS011;11967;50.852;4.400;2022-07-17T10:55:43;4.18;;;2.08;;
23578;SDS011;11967;50.852;4.400;2022-07-17T10:58:13;6.05;;;2.30;;
23578;SDS011;11967;50.852;4.400;2022-07-17T11:06:10;4.38;;;2.40;;
23578;SDS011;11967;50.852;4.400;2022-07-17T11:11:15;7.63;;;2.67;;
23578;SDS011;11967;50.852;4.400;2022-07-17T11:13:43;5.10;;;2.45;;
23578;SDS011;11967;50.852;4.400;2022-07-17T11:16:10;5.35;;;2.60;;
23578;SDS011;11967;50.852;4.400;2022-07-17T11:18:35;7.15;;;2.85;;
23578;SDS011;11967;50.852;4.400;2022-07-17T11:21:02;5.38;;;2.47;;
23578;SDS011;11967;50.852;4.400;2022-07-17T11:23:29;5.32;;;2.28;;
23578;SDS011;11967;50.852;4.400;2022-07-17T11:26:01;5.78;;;2.80;;
23578;SDS011;11967;50.852;4.400;2022-07-17T11:31:05;4.88;;;2.40;;
23578;SDS011;11967;50.852;4.400;2022-07-17T11:33:49;4.28;;;2.63;;
23578;SDS011;11967;50.852;4.400;2022-07-17T11:36:21;4.90;;;2.45;;
23578;SDS011;11967;50.852;4.400;2022-07-17T11:38:54;6.60;;;2.67;;
23578;SDS011;11967;50.852;4.400;2022-07-17T11:41:21;8.05;;;2.60;;
23578;SDS011;11967;50.852;4.400;2022-07-17T11:43:55;8.98;;;2.80;;
23578;SDS011;11967;50.852;4.400;2022-07-17T11:46:22;9.32;;;2.80;;
23578;SDS011;11967;50.852;4.400;2022-07-17T11:48:48;10.15;;;2.70;;
23578;SDS011;11967;50.852;4.400;2022-07-17T11:51:14;4.75;;;2.38;;
23578;SDS011;11967;50.852;4.400;2022-07-17T11:53:41;5.88;;;2.40;;
23578;SDS011;11967;50.852;4.400;2022-07-17T11:56:07;6.57;;;3.25;;
23578;SDS011;11967;50.852;4.400;2022-07-17T11:59:08;6.88;;;2.83;;
23578;SDS011;11967;50.852;4.400;2022-07-17T12:01:37;4.93;;;2.90;;
23578;SDS011;11967;50.852;4.400;2022-07-17T12:04:08;5.25;;;2.58;;
23578;SDS011;11967;50.852;4.400;2022-07-17T12:06:39;5.25;;;2.60;;
23578;SDS011;11967;50.852;4.400;2022-07-17T12:09:05;5.75;;;2.50;;
23578;SDS011;11967;50.852;4.400;2022-07-17T12:11:32;7.53;;;2.90;;
23578;SDS011;11967;50.852;4.400;2022-07-17T12:14:05;5.38;;;2.67;;
23578;SDS011;11967;50.852;4.400;2022-07-17T12:16:34;8.90;;;3.35;;
23578;SDS011;11967;50.852;4.400;2022-07-17T12:21:33;7.22;;;3.30;;
23578;SDS011;11967;50.852;4.400;2022-07-17T12:24:26;6.45;;;3.00;;
23578;SDS011;11967;50.852;4.400;2022-07-17T12:26:58;8.98;;;3.30;;
23578;SDS011;11967;50.852;4.400;2022-07-17T12:29:38;4.00;;;2.80;;
23578;SDS011;11967;50.852;4.400;2022-07-17T12:32:29;6.55;;;3.05;;
23578;SDS011;11967;50.852;4.400;2022-07-17T12:35:10;5.78;;;2.80;;
23578;SDS011;11967;50.852;4.400;2022-07-17T12:37:39;6.20;;;2.40;;
23578;SDS011;11967;50.852;4.400;2022-07-17T12:40:16;6.88;;;2.75;;
23578;SDS011;11967;50.852;4.400;2022-07-17T12:42:58;4.05;;;2.33;;
23578;SDS011;11967;50.852;4.400;2022-07-17T12:45:36;4.70;;;2.55;;
23578;SDS011;11967;50.852;4.400;2022-07-17T12:48:18;6.82;;;3.03;;
23578;SDS011;11967;50.852;4.400;2022-07-17T12:50:49;4.97;;;2.78;;
23578;SDS011;11967;50.852;4.400;2022-07-17T12:53:52;6.63;;;2.97;;
23578;SDS011;11967;50.852;4.400;2022-07-17T12:56:35;6.35;;;2.67;;
23578;SDS011;11967;50.852;4.400;2022-07-17T12:59:32;6.30;;;2.70;;
23578;SDS011;11967;50.852;4.400;2022-07-17T13:02:38;4.15;;;2.80;;
23578;SDS011;11967;50.852;4.400;2022-07-17T13:05:10;6.22;;;3.17;;
23578;SDS011;11967;50.852;4.400;2022-07-17T13:07:39;4.75;;;2.83;;
23578;SDS011;11967;50.852;4.400;2022-07-17T13:10:05;5.55;;;2.92;;
23578;SDS011;11967;50.852;4.400;2022-07-17T13:12:31;5.72;;;3.08;;
23578;SDS011;11967;50.852;4.400;2022-07-17T13:14:57;6.25;;;3.00;;
23578;SDS011;11967;50.852;4.400;2022-07-17T13:17:22;4.13;;;2.60;;
23578;SDS011;11967;50.852;4.400;2022-07-17T13:19:49;4.43;;;2.80;;
23578;SDS011;11967;50.852;4.400;2022-07-17T13:22:15;6.60;;;2.63;;
23578;SDS011;11967;50.852;4.400;2022-07-17T13:24:40;6.15;;;2.80;;
23578;SDS011;11967;50.852;4.400;2022-07-17T13:27:06;5.00;;;2.92;;
23578;SDS011;11967;50.852;4.400;2022-07-17T13:29:32;6.57;;;2.88;;
23578;SDS011;11967;50.852;4.400;2022-07-17T13:31:57;4.60;;;2.67;;
23578;SDS011;11967;50.852;4.400;2022-07-17T13:34:24;5.60;;;3.00;;
23578;SDS011;11967;50.852;4.400;2022-07-17T13:36:49;6.60;;;3.17;;
23578;SDS011;11967;50.852;4.400;2022-07-17T13:39:15;5.78;;;2.92;;
23578;SDS011;11967;50.852;4.400;2022-07-17T13:41:41;5.30;;;2.75;;
23578;SDS011;11967;50.852;4.400;2022-07-17T13:44:07;4.28;;;2.60;;
23578;SDS011;11967;50.852;4.400;2022-07-17T13:46:33;5.78;;;2.80;;
23578;SDS011;11967;50.852;4.400;2022-07-17T13:48:59;4.45;;;2.58;;
23578;SDS011;11967;50.852;4.400;2022-07-17T13:51:25;4.40;;;2.70;;
23578;SDS011;11967;50.852;4.400;2022-07-17T13:53:52;4.50;;;2.65;;
23578;SDS011;11967;50.852;4.400;2022-07-17T13:56:19;5.20;;;3.00;;
23578;SDS011;11967;50.852;4.400;2022-07-17T13:58:46;8.77;;;2.75;;
23578;SDS011;11967;50.852;4.400;2022-07-17T14:01:13;5.18;;;2.65;;
23578;SDS011;11967;50.852;4.400;2022-07-17T14:03:39;4.68;;;2.70;;
23578;SDS011;11967;50.852;4.400;2022-07-17T14:06:05;3.78;;;2.42;;
23578;SDS011;11967;50.852;4.400;2022-07-17T14:08:32;4.05;;;2.55;;
23578;SDS011;11967;50.852;4.400;2022-07-17T14:10:57;4.60;;;2.75;;
23578;SDS011;11967;50.852;4.400;2022-07-17T14:13:23;4.00;;;2.40;;
23578;SDS011;11967;50.852;4.400;2022-07-17T14:15:49;4.57;;;2.63;;
23578;SDS011;11967;50.852;4.400;2022-07-17T14:18:15;4.30;;;2.25;;
23578;SDS011;11967;50.852;4.400;2022-07-17T14:20:41;2.35;;;2.15;;
23578;SDS011;11967;50.852;4.400;2022-07-17T14:23:08;4.45;;;2.33;;
23578;SDS011;11967;50.852;4.400;2022-07-17T14:25:33;3.53;;;2.35;;
23578;SDS011;11967;50.852;4.400;2022-07-17T14:27:59;4.75;;;2.60;;
23578;SDS011;11967;50.852;4.400;2022-07-17T14:30:25;3.45;;;2.42;;
23578;SDS011;11967;50.852;4.400;2022-07-17T14:32:51;3.42;;;2.20;;
23578;SDS011;11967;50.852;4.400;2022-07-17T14:35:17;4.53;;;2.95;;
23578;SDS011;11967;50.852;4.400;2022-07-17T14:37:43;4.35;;;2.60;;
23578;SDS011;11967;50.852;4.400;2022-07-17T14:40:10;3.92;;;2.67;;
23578;SDS011;11967;50.852;4.400;2022-07-17T14:42:37;5.32;;;2.80;;
23578;SDS011;11967;50.852;4.400;2022-07-17T14:45:03;5.30;;;2.40;;
23578;SDS011;11967;50.852;4.400;2022-07-17T14:47:29;3.55;;;2.03;;
23578;SDS011;11967;50.852;4.400;2022-07-17T14:49:54;3.75;;;2.50;;
23578;SDS011;11967;50.852;4.400;2022-07-17T14:52:21;5.40;;;2.72;;
23578;SDS011;11967;50.852;4.400;2022-07-17T14:54:47;7.78;;;2.63;;
23578;SDS011;11967;50.852;4.400;2022-07-17T14:57:13;4.97;;;2.40;;
23578;SDS011;11967;50.852;4.400;2022-07-17T14:59:39;3.83;;;2.50;;
23578;SDS011;11967;50.852;4.400;2022-07-17T15:02:06;4.25;;;2.50;;
23578;SDS011;11967;50.852;4.400;2022-07-17T15:04:32;3.83;;;2.60;;
23578;SDS011;11967;50.852;4.400;2022-07-17T15:07:01;3.83;;;2.30;;
23578;SDS011;11967;50.852;4.400;2022-07-17T15:09:27;4.47;;;2.33;;
23578;SDS011;11967;50.852;4.400;2022-07-17T15:11:53;5.10;;;2.50;;
23578;SDS011;11967;50.852;4.400;2022-07-17T15:14:18;4.82;;;2.20;;
23578;SDS011;11967;50.852;4.400;2022-07-17T15:16:44;4.43;;;2.17;;